createdAt,value
2018-10-11T00:01:55.989Z,95766.30
2018-10-11T00:04:24.798Z,95769.34
2018-10-11T00:06:53.584Z,95762.77
2018-10-11T00:09:22.549Z,95757.30
2018-10-11T00:11:51.297Z,95763.56
2018-10-11T00:14:20.118Z,95761.17
2018-10-11T00:16:48.945Z,95760.68
2018-10-11T00:19:17.720Z,95765.20
2018-10-11T00:21:46.476Z,95760.20
2018-10-11T00:24:15.193Z,95762.16
2018-10-11T00:26:43.941Z,95757.73
2018-10-11T00:29:12.714Z,95756.09
2018-10-11T00:31:41.453Z,95755.98
2018-10-11T00:34:10.234Z,95754.46
2018-10-11T00:36:39.057Z,95754.11
2018-10-11T00:39:08.630Z,95755.48
2018-10-11T00:41:37.416Z,95752.08
2018-10-11T00:44:06.215Z,95756.97
2018-10-11T00:46:35.030Z,95752.25
2018-10-11T00:49:03.917Z,95746.56
2018-10-11T00:51:32.719Z,95750.00
2018-10-11T00:54:01.615Z,95753.80
2018-10-11T00:56:30.450Z,95750.56
2018-10-11T00:58:59.337Z,95756.86
2018-10-11T01:01:28.248Z,95747.09
2018-10-11T01:03:57.445Z,95751.72
2018-10-11T01:06:26.371Z,95751.95
2018-10-11T01:08:55.162Z,95753.20
2018-10-11T01:11:23.961Z,95755.55
2018-10-11T01:13:52.741Z,95752.28
2018-10-11T01:16:21.509Z,95757.21
2018-10-11T01:18:50.321Z,95754.59
2018-10-11T01:21:19.094Z,95757.53
2018-10-11T01:23:47.988Z,95753.27
2018-10-11T01:26:16.970Z,95753.10
2018-10-11T01:28:45.773Z,95762.23
2018-10-11T01:31:20.469Z,95764.53
2018-10-11T01:33:49.356Z,95760.58
2018-10-11T01:36:18.133Z,95756.86
2018-10-11T01:38:48.995Z,95754.73
2018-10-11T01:41:18.082Z,95760.50
2018-10-11T01:43:46.825Z,95751.07
2018-10-11T01:46:15.687Z,95752.23
2018-10-11T01:48:44.892Z,95748.20
2018-10-11T01:51:13.707Z,95747.72
2018-10-11T01:53:42.513Z,95755.59
2018-10-11T01:56:11.333Z,95758.16
2018-10-11T01:58:40.123Z,95755.12
2018-10-11T02:01:08.877Z,95763.19
2018-10-11T02:03:37.670Z,95754.03
2018-10-11T02:06:06.516Z,95759.28
2018-10-11T02:08:35.279Z,95755.33
2018-10-11T02:11:04.073Z,95753.00
2018-10-11T02:13:33.197Z,95758.40
2018-10-11T02:16:01.996Z,95761.19
2018-10-11T02:18:30.769Z,95757.08
2018-10-11T02:20:59.562Z,95754.08
2018-10-11T02:23:28.347Z,95765.70
2018-10-11T02:25:57.219Z,95758.49
2018-10-11T02:28:26.026Z,95759.47
2018-10-11T02:30:54.867Z,95757.50
2018-10-11T02:33:23.713Z,95759.47
2018-10-11T02:35:52.464Z,95764.00
2018-10-11T02:38:21.332Z,95759.27
2018-10-11T02:40:50.153Z,95759.47
2018-10-11T02:43:18.972Z,95770.13
2018-10-11T02:45:47.778Z,95764.77
2018-10-11T02:48:16.585Z,95769.04
2018-10-11T02:50:45.374Z,95767.08
2018-10-11T02:53:14.100Z,95762.17
2018-10-11T02:55:42.958Z,95757.95
2018-10-11T02:58:22.796Z,95758.97
2018-10-11T03:00:51.637Z,95755.58
2018-10-11T03:03:22.677Z,95756.77
2018-10-11T03:05:51.942Z,95759.69
2018-10-11T03:08:22.494Z,95751.55
2018-10-11T03:10:51.804Z,95756.30
2018-10-11T03:13:20.645Z,95747.30
2018-10-11T03:15:49.486Z,95745.67
2018-10-11T03:18:19.062Z,95746.48
2018-10-11T03:20:47.844Z,95738.84
2018-10-11T03:23:16.693Z,95743.21
2018-10-11T03:25:46.405Z,95733.59
2018-10-11T03:28:16.464Z,95743.62
2018-10-11T03:30:45.455Z,95744.78
2018-10-11T03:33:15.065Z,95736.27
2018-10-11T03:35:44.653Z,95741.17
2018-10-11T03:38:13.787Z,95741.34
2018-10-11T03:40:42.944Z,95745.44
2018-10-11T03:43:11.753Z,95743.15
2018-10-11T03:45:40.516Z,95747.94
2018-10-11T03:48:09.509Z,95752.88
2018-10-11T03:50:38.252Z,95755.50
2018-10-11T03:53:07.538Z,95744.66
2018-10-11T03:55:36.366Z,95746.42
2018-10-11T03:58:05.325Z,95742.16
2018-10-11T04:00:34.233Z,95734.95
2018-10-11T04:03:03.441Z,95727.42
2018-10-11T04:05:32.357Z,95736.59
2018-10-11T04:08:01.247Z,95740.19
2018-10-11T04:10:30.072Z,95734.67
2018-10-11T04:12:59.109Z,95734.18
2018-10-11T04:15:30.853Z,95733.21
2018-10-11T04:17:59.749Z,95732.75
2018-10-11T04:20:28.498Z,95737.02
2018-10-11T04:22:57.252Z,95737.70
2018-10-11T04:25:27.123Z,95736.03
2018-10-11T04:27:55.919Z,95737.17
2018-10-11T04:30:25.241Z,95731.77
2018-10-11T04:32:55.071Z,95730.47
2018-10-11T04:35:23.872Z,95742.61
2018-10-11T04:37:52.702Z,95738.98
2018-10-11T04:40:21.525Z,95736.16
2018-10-11T04:42:50.501Z,95736.97
2018-10-11T04:45:19.336Z,95739.55
2018-10-11T04:47:48.153Z,95734.46
2018-10-11T04:50:17.133Z,95734.25
2018-10-11T04:52:46.066Z,95738.63
2018-10-11T04:55:14.886Z,95740.06
2018-10-11T04:57:43.701Z,95734.70
2018-10-11T05:00:14.001Z,95741.19
2018-10-11T05:02:42.777Z,95741.78
2018-10-11T05:05:11.639Z,95735.38
2018-10-11T05:07:40.571Z,95732.53
2018-10-11T05:10:09.470Z,95736.14
2018-10-11T05:12:38.313Z,95740.05
2018-10-11T05:15:07.762Z,95743.38
2018-10-11T05:17:36.674Z,95741.63
2018-10-11T05:20:05.627Z,95737.55
2018-10-11T05:22:34.653Z,95741.64
2018-10-11T05:25:03.445Z,95741.48
2018-10-11T05:27:32.654Z,95749.16
2018-10-11T05:30:01.905Z,95748.50
2018-10-11T05:32:31.126Z,95751.41
2018-10-11T05:35:00.038Z,95750.90
2018-10-11T05:37:29.216Z,95752.48
2018-10-11T05:39:58.266Z,95758.86
2018-10-11T05:42:27.276Z,95759.83
2018-10-11T05:45:04.022Z,95761.64
2018-10-11T05:47:33.016Z,95757.21
2018-10-11T05:50:02.297Z,95763.37
2018-10-11T05:52:31.179Z,95766.64
2018-10-11T05:54:59.971Z,95764.75
2018-10-11T05:57:28.901Z,95766.13
2018-10-11T05:59:58.053Z,95759.58
2018-10-11T06:02:27.444Z,95761.94
2018-10-11T06:04:56.744Z,95758.14
2018-10-11T06:07:25.755Z,95757.91
2018-10-11T06:09:54.767Z,95758.55
2018-10-11T06:12:23.778Z,95761.57
2018-10-11T06:14:53.094Z,95760.94
2018-10-11T06:17:22.373Z,95763.46
2018-10-11T06:19:51.578Z,95767.94
2018-10-11T06:22:20.459Z,95771.13
2018-10-11T06:24:49.837Z,95769.39
2018-10-11T06:27:18.862Z,95773.36
2018-10-11T06:29:47.829Z,95771.79
2018-10-11T06:32:16.701Z,95773.56
2018-10-11T06:34:45.593Z,95773.38
2018-10-11T06:37:14.851Z,95778.16
2018-10-11T06:39:43.721Z,95774.27
2018-10-11T06:42:12.818Z,95774.58
2018-10-11T06:44:41.929Z,95775.77
2018-10-11T06:47:10.868Z,95774.20
2018-10-11T06:49:40.117Z,95779.92
2018-10-11T06:52:09.311Z,95776.70
2018-10-11T06:54:38.187Z,95774.58
2018-10-11T06:57:07.617Z,95768.72
2018-10-11T06:59:36.548Z,95775.77
2018-10-11T07:02:05.756Z,95784.60
2018-10-11T07:04:34.623Z,95781.79
2018-10-11T07:07:03.504Z,95781.23
2018-10-11T07:09:32.271Z,95787.82
2018-10-11T07:12:01.115Z,95783.05
2018-10-11T07:14:29.931Z,95786.67
2018-10-11T07:16:58.746Z,95789.30
2018-10-11T07:19:27.659Z,95798.31
2018-10-11T07:21:58.852Z,95801.98
2018-10-11T07:24:27.673Z,95802.80
2018-10-11T07:26:56.454Z,95805.83
2018-10-11T07:29:25.320Z,95810.78
2018-10-11T07:31:54.043Z,95812.67
2018-10-11T07:34:22.820Z,95806.97
2018-10-11T07:36:51.836Z,95802.73
2018-10-11T07:39:20.594Z,95811.45
2018-10-11T07:41:49.367Z,95805.02
2018-10-11T07:44:18.123Z,95808.00
2018-10-11T07:46:46.967Z,95807.30
2018-10-11T07:49:15.729Z,95804.42
2018-10-11T07:51:44.524Z,95807.30
2018-10-11T07:54:13.316Z,95798.23
2018-10-11T07:56:42.061Z,95800.77
2018-10-11T07:59:10.863Z,95794.94
2018-10-11T08:01:39.674Z,95794.09
2018-10-11T08:04:08.599Z,95792.05
2018-10-11T08:06:37.358Z,95788.02
2018-10-11T08:09:07.907Z,95789.58
2018-10-11T08:11:36.883Z,95790.01
2018-10-11T08:14:05.922Z,95790.83
2018-10-11T08:16:34.811Z,95785.55
2018-10-11T08:19:04.014Z,95793.88
2018-10-11T08:21:32.733Z,95797.53
2018-10-11T08:24:01.827Z,95791.86
2018-10-11T08:26:31.041Z,95793.17
2018-10-11T08:28:59.686Z,95791.36
2018-10-11T08:31:28.413Z,95788.02
2018-10-11T08:33:57.242Z,95788.91
2018-10-11T08:36:26.033Z,95785.66
2018-10-11T08:38:54.886Z,95790.34
2018-10-11T08:41:23.679Z,95795.20
2018-10-11T08:43:52.481Z,95792.47
2018-10-11T08:46:21.462Z,95796.95
2018-10-11T08:48:50.141Z,95795.59
2018-10-11T08:51:18.893Z,95801.75
2018-10-11T08:53:47.759Z,95809.35
2018-10-11T08:56:16.761Z,95800.59
2018-10-11T08:58:45.528Z,95806.67
2018-10-11T09:01:14.302Z,95799.02
2018-10-11T09:03:43.165Z,95805.98
2018-10-11T09:06:12.156Z,95798.44
2018-10-11T09:08:41.031Z,95802.23
2018-10-11T09:11:09.837Z,95799.61
2018-10-11T09:13:38.828Z,95802.62
2018-10-11T09:16:07.610Z,95802.77
2018-10-11T09:18:36.397Z,95802.27
2018-10-11T09:21:05.170Z,95795.13
2018-10-11T09:23:33.932Z,95794.59
2018-10-11T09:26:02.681Z,95793.56
2018-10-11T09:28:31.466Z,95789.16
2018-10-11T09:31:00.274Z,95784.66
2018-10-11T09:33:29.107Z,95777.06
2018-10-11T09:35:57.922Z,95779.59
2018-10-11T09:38:27.459Z,95779.72
2018-10-11T09:40:56.285Z,95776.63
2018-10-11T09:43:25.045Z,95772.21
2018-10-11T09:45:53.907Z,95776.04
2018-10-11T09:48:22.643Z,95767.34
2018-10-11T09:50:51.431Z,95773.33
2018-10-11T09:53:20.170Z,95764.08
2018-10-11T09:55:48.998Z,95767.42
2018-10-11T09:58:17.745Z,95751.79
2018-10-11T10:00:51.741Z,95745.29
2018-10-11T10:03:20.545Z,95742.57
2018-10-11T10:05:49.319Z,95741.18
2018-10-11T10:08:18.028Z,95743.33
2018-10-11T10:10:46.788Z,95734.27
2018-10-11T10:13:15.530Z,95729.39
2018-10-11T10:15:44.548Z,95732.73
2018-10-11T10:18:13.403Z,95722.38
2018-10-11T10:20:42.178Z,95724.54
2018-10-11T10:23:11.041Z,95719.25
2018-10-11T10:25:39.969Z,95714.38
2018-10-11T10:28:08.980Z,95716.82
2018-10-11T10:30:42.878Z,95710.01
2018-10-11T10:33:11.631Z,95710.58
2018-10-11T10:35:40.366Z,95704.30
2018-10-11T10:38:09.535Z,95695.99
2018-10-11T10:40:38.342Z,95695.93
2018-10-11T10:43:07.119Z,95690.20
2018-10-11T10:45:35.845Z,95692.63
2018-10-11T10:48:04.575Z,95691.24
2018-10-11T10:50:33.350Z,95691.73
2018-10-11T10:53:02.102Z,95684.84
2018-10-11T10:55:30.854Z,95687.55
2018-10-11T10:57:59.606Z,95680.14
2018-10-11T11:00:28.430Z,95677.55
2018-10-11T11:02:57.180Z,95683.86
2018-10-11T11:05:25.936Z,95677.36
2018-10-11T11:07:54.759Z,95670.84
2018-10-11T11:10:23.473Z,95669.92
2018-10-11T11:12:52.234Z,95671.11
2018-10-11T11:15:21.687Z,95665.06
2018-10-11T11:17:50.459Z,95660.45
2018-10-11T11:20:19.179Z,95663.55
2018-10-11T11:22:48.096Z,95662.95
2018-10-11T11:25:16.883Z,95661.06
2018-10-11T11:27:45.822Z,95661.92
2018-10-11T11:30:14.570Z,95649.76
2018-10-11T11:32:43.271Z,95653.95
2018-10-11T11:35:12.079Z,95653.94
2018-10-11T11:37:40.800Z,95649.98
2018-10-11T11:40:09.538Z,95649.95
2018-10-11T11:42:38.471Z,95634.19
2018-10-11T11:45:07.243Z,95642.08
2018-10-11T11:47:36.016Z,95636.10
2018-10-11T11:50:04.889Z,95642.00
2018-10-11T11:52:33.619Z,95630.98
2018-10-11T11:55:02.374Z,95633.70
2018-10-11T11:57:31.115Z,95631.13
2018-10-11T12:00:00.002Z,95628.88
2018-10-11T12:02:28.740Z,95629.34
2018-10-11T12:04:57.676Z,95628.28
2018-10-11T12:07:26.649Z,95630.94
2018-10-11T12:09:55.346Z,95624.29
2018-10-11T12:13:01.402Z,95628.48
2018-10-11T12:15:31.055Z,95618.66
2018-10-11T12:18:01.026Z,95626.87
2018-10-11T12:20:31.965Z,95614.55
2018-10-11T12:23:01.999Z,95619.56
2018-10-11T12:25:31.148Z,95620.20
2018-10-11T12:27:59.971Z,95619.28
2018-10-11T12:30:28.791Z,95620.56
2018-10-11T12:32:57.553Z,95616.82
2018-10-11T12:35:27.086Z,95619.42
2018-10-11T12:37:55.844Z,95615.42
2018-10-11T12:40:24.634Z,95615.50
2018-10-11T12:42:53.399Z,95613.00
2018-10-11T12:45:22.282Z,95611.53
2018-10-11T12:47:51.504Z,95609.03
2018-10-11T12:50:20.582Z,95608.45
2018-10-11T12:52:49.399Z,95612.85
2018-10-11T12:55:18.189Z,95611.27
2018-10-11T12:57:46.902Z,95599.59
2018-10-11T13:00:16.932Z,95604.58
2018-10-11T13:02:45.940Z,95602.23
2018-10-11T13:05:14.861Z,95601.49
2018-10-11T13:07:43.604Z,95601.74
2018-10-11T13:10:12.366Z,95604.16
2018-10-11T13:12:41.145Z,95600.81
2018-10-11T13:15:10.015Z,95591.73
2018-10-11T13:17:42.817Z,95593.84
2018-10-11T13:20:08.423Z,95602.32
2018-10-11T13:22:37.205Z,95597.34
2018-10-11T13:25:06.198Z,95600.04
2018-10-11T13:27:34.957Z,95601.52
2018-10-11T13:30:04.918Z,95599.01
2018-10-11T13:32:33.639Z,95586.10
2018-10-11T13:35:02.362Z,95588.75
2018-10-11T13:37:31.237Z,95581.94
2018-10-11T13:39:59.958Z,95575.78
2018-10-11T13:42:28.719Z,95576.28
2018-10-11T13:44:57.559Z,95569.87
2018-10-11T13:47:26.505Z,95582.44
2018-10-11T13:49:55.408Z,95575.78
2018-10-11T13:52:24.158Z,95574.86
2018-10-11T13:54:52.850Z,95575.84
2018-10-11T13:57:25.120Z,95585.84
2018-10-11T13:59:50.501Z,95582.86
2018-10-11T14:02:19.214Z,95584.55
2018-10-11T14:04:47.941Z,95592.36
2018-10-11T14:07:17.727Z,95594.64
2018-10-11T14:09:46.918Z,95591.09
2018-10-11T14:12:15.676Z,95592.41
2018-10-11T14:14:44.451Z,95597.97
2018-10-11T14:17:14.414Z,95595.68
2018-10-11T14:19:43.257Z,95598.33
2018-10-11T14:22:17.458Z,95596.26
2018-10-11T14:24:47.259Z,95604.95
2018-10-11T14:27:18.678Z,95609.61
2018-10-11T14:29:47.479Z,95614.02
2018-10-11T14:32:16.191Z,95604.66
2018-10-11T14:34:44.942Z,95606.06
2018-10-11T14:37:14.068Z,95618.50
2018-10-11T14:39:42.886Z,95606.71
2018-10-11T14:42:12.165Z,95608.50
2018-10-11T14:44:45.033Z,95610.04
2018-10-11T14:47:14.374Z,95620.72
2018-10-11T14:49:43.325Z,95619.23
2018-10-11T14:52:12.772Z,95623.50
2018-10-11T14:54:41.900Z,95621.27
2018-10-11T14:57:13.309Z,95618.77
2018-10-11T14:59:45.433Z,95620.61
2018-10-11T15:02:14.235Z,95615.68
2018-10-11T15:04:45.558Z,95619.71
2018-10-11T15:07:15.222Z,95614.06
2018-10-11T15:09:43.903Z,95617.73
2018-10-11T15:12:12.867Z,95622.30
2018-10-11T15:14:41.607Z,95627.87
2018-10-11T15:17:10.327Z,95627.70
2018-10-11T15:19:39.022Z,95618.86
2018-10-11T15:22:07.737Z,95621.66
2018-10-11T15:24:36.655Z,95618.95
2018-10-11T15:27:05.406Z,95618.75
2018-10-11T15:29:34.136Z,95622.38
2018-10-11T15:32:03.093Z,95622.73
2018-10-11T15:34:31.790Z,95625.44
2018-10-11T15:37:00.640Z,95625.30
2018-10-11T15:39:29.375Z,95630.70
2018-10-11T15:41:58.208Z,95626.87
2018-10-11T15:44:26.969Z,95641.33
2018-10-11T15:46:55.782Z,95651.60
2018-10-11T15:49:24.758Z,95645.41
2018-10-11T15:51:53.508Z,95648.80
2018-10-11T15:54:22.240Z,95651.74
2018-10-11T15:56:50.957Z,95651.30
2018-10-11T15:59:19.699Z,95649.91
2018-10-11T16:01:48.504Z,95659.67
2018-10-11T16:04:17.329Z,95660.80
2018-10-11T16:06:46.064Z,95668.64
2018-10-11T16:09:14.883Z,95668.64
2018-10-11T16:11:43.804Z,95668.27
2018-10-11T16:14:12.532Z,95675.69
2018-10-11T16:16:41.279Z,95675.28
2018-10-11T16:19:10.051Z,95677.45
2018-10-11T16:21:38.754Z,95681.83
2018-10-11T16:24:07.543Z,95685.80
2018-10-11T16:26:36.276Z,95688.14
2018-10-11T16:29:05.044Z,95688.14
2018-10-11T16:31:33.856Z,95695.97
2018-10-11T16:34:02.622Z,95692.30
2018-10-11T16:36:31.408Z,95700.61
2018-10-11T16:39:00.287Z,95700.54
2018-10-11T16:41:29.038Z,95704.58
2018-10-11T16:43:58.005Z,95707.63
2018-10-11T16:46:26.800Z,95706.67
2018-10-11T16:48:55.552Z,95709.66
2018-10-11T16:51:24.267Z,95717.42
2018-10-11T16:53:53.183Z,95719.76
2018-10-11T16:56:22.024Z,95723.31
2018-10-11T16:58:50.757Z,95722.84
2018-10-11T17:01:19.591Z,95719.17
2018-10-11T17:03:48.388Z,95725.57
2018-10-11T17:06:17.142Z,95719.47
2018-10-11T17:08:45.838Z,95717.64
2018-10-11T17:11:14.519Z,95723.33
2018-10-11T17:13:43.290Z,95725.40
2018-10-11T17:16:12.003Z,95724.89
2018-10-11T17:18:40.791Z,95723.14
2018-10-11T17:21:09.994Z,95728.55
2018-10-11T17:23:38.714Z,95727.23
2018-10-11T17:26:07.586Z,95727.40
2018-10-11T17:28:40.309Z,95733.91
2018-10-11T17:31:09.123Z,95730.69
2018-10-11T17:33:37.867Z,95736.86
2018-10-11T17:36:06.649Z,95739.13
2018-10-11T17:38:35.449Z,95737.60
2018-10-11T17:41:04.521Z,95741.94
2018-10-11T17:43:33.349Z,95739.50
2018-10-11T17:46:02.845Z,95741.83
2018-10-11T17:48:31.648Z,95739.90
2018-10-11T17:51:00.347Z,95743.79
2018-10-11T17:53:29.151Z,95739.32
2018-10-11T17:55:57.943Z,95740.44
2018-10-11T17:58:26.696Z,95741.66
2018-10-11T18:00:55.438Z,95737.39
2018-10-11T18:03:24.228Z,95742.16
2018-10-11T18:05:53.078Z,95741.67
2018-10-11T18:08:21.856Z,95743.39
2018-10-11T18:10:50.570Z,95748.30
2018-10-11T18:13:19.620Z,95744.62
2018-10-11T18:15:48.415Z,95755.69
2018-10-11T18:18:17.263Z,95757.84
2018-10-11T18:20:46.037Z,95757.41
2018-10-11T18:23:14.772Z,95757.92
2018-10-11T18:25:43.535Z,95759.98
2018-10-11T18:28:12.256Z,95763.02
2018-10-11T18:30:41.048Z,95770.55
2018-10-11T18:33:09.764Z,95771.86
2018-10-11T18:35:38.568Z,95772.56
2018-10-11T18:38:07.515Z,95776.02
2018-10-11T18:40:36.265Z,95778.97
2018-10-11T18:43:05.042Z,95771.13
2018-10-11T18:45:33.866Z,95780.38
2018-10-11T18:48:02.581Z,95778.23
2018-10-11T18:50:31.446Z,95779.36
2018-10-11T18:53:00.179Z,95782.31
2018-10-11T18:55:29.022Z,95779.78
2018-10-11T18:57:57.771Z,95784.56
2018-10-11T19:00:26.740Z,95788.72
2018-10-11T19:02:55.499Z,95787.09
2018-10-11T19:05:24.291Z,95782.73
2018-10-11T19:07:53.041Z,95784.95
2018-10-11T19:10:21.832Z,95783.94
2018-10-11T19:12:50.591Z,95776.13
2018-10-11T19:15:19.353Z,95782.20
2018-10-11T19:17:48.087Z,95788.49
2018-10-11T19:20:16.891Z,95781.50
2018-10-11T19:22:45.885Z,95780.57
2018-10-11T19:25:14.702Z,95782.91
2018-10-11T19:27:43.431Z,95786.08
2018-10-11T19:30:12.158Z,95789.61
2018-10-11T19:32:40.943Z,95792.17
2018-10-11T19:35:09.796Z,95790.84
2018-10-11T19:37:38.587Z,95792.59
2018-10-11T19:40:07.344Z,95792.78
2018-10-11T19:42:36.087Z,95797.55
2018-10-11T19:45:04.931Z,95787.81
2018-10-11T19:47:33.605Z,95793.30
2018-10-11T19:50:02.435Z,95790.84
2018-10-11T19:52:31.166Z,95791.36
2018-10-11T19:54:59.871Z,95797.73
2018-10-11T19:57:28.702Z,95799.05
2018-10-11T19:59:57.415Z,95798.24
2018-10-11T20:02:26.150Z,95791.64
2018-10-11T20:04:54.910Z,95794.20
2018-10-11T20:07:23.627Z,95797.84
2018-10-11T20:09:52.351Z,95800.57
2018-10-11T20:12:21.081Z,95802.31
2018-10-11T20:14:49.793Z,95804.65
2018-10-11T20:17:18.699Z,95805.16
2018-10-11T20:19:47.527Z,95800.69
2018-10-11T20:22:16.358Z,95798.05
2018-10-11T20:24:45.119Z,95794.70
2018-10-11T20:27:13.823Z,95798.58
2018-10-11T20:29:42.605Z,95797.53
2018-10-11T20:32:12.154Z,95792.56
2018-10-11T20:34:40.902Z,95800.48
2018-10-11T20:37:09.693Z,95800.30
2018-10-11T20:39:38.434Z,95803.75
2018-10-11T20:42:07.310Z,95794.08
2018-10-11T20:44:36.027Z,95805.66
2018-10-11T20:47:04.847Z,95802.94
2018-10-11T20:49:33.618Z,95799.17
2018-10-11T20:52:02.374Z,95792.14
2018-10-11T20:54:31.250Z,95793.58
2018-10-11T20:56:59.974Z,95795.48
2018-10-11T20:59:28.665Z,95801.89
2018-10-11T21:01:57.378Z,95799.95
2018-10-11T21:04:26.065Z,95795.91
2018-10-11T21:06:55.068Z,95804.84
2018-10-11T21:09:23.968Z,95803.02
2018-10-11T21:11:52.897Z,95803.21
2018-10-11T21:14:21.895Z,95807.29
2018-10-11T21:16:50.752Z,95807.80
2018-10-11T21:19:19.679Z,95804.95
2018-10-11T21:21:48.642Z,95806.39
2018-10-11T21:24:17.467Z,95805.34
2018-10-11T21:26:46.360Z,95807.98
2018-10-11T21:29:15.216Z,95801.61
2018-10-11T21:31:44.084Z,95803.05
2018-10-11T21:34:13.046Z,95803.33
2018-10-11T21:36:42.120Z,95801.10
2018-10-11T21:39:12.783Z,95795.82
2018-10-11T21:41:42.201Z,95794.39
2018-10-11T21:44:12.048Z,95798.47
2018-10-11T21:46:41.060Z,95799.05
2018-10-11T21:49:10.272Z,95800.84
2018-10-11T21:51:39.178Z,95799.52
2018-10-11T21:54:08.118Z,95798.58
2018-10-11T21:56:37.023Z,95803.92
2018-10-11T21:59:05.892Z,95794.61
2018-10-11T22:01:34.851Z,95796.00
2018-10-11T22:04:03.826Z,95796.50
2018-10-11T22:06:32.687Z,95788.44
2018-10-11T22:09:01.636Z,95795.34
2018-10-11T22:11:30.524Z,95794.03
2018-10-11T22:13:59.448Z,95793.22
2018-10-11T22:16:28.710Z,95797.32
2018-10-11T22:18:57.641Z,95798.64
2018-10-11T22:21:26.568Z,95800.03
2018-10-11T22:23:55.452Z,95808.33
2018-10-11T22:26:24.315Z,95800.91
2018-10-11T22:28:53.223Z,95803.42
2018-10-11T22:31:22.115Z,95806.75
2018-10-11T22:33:51.096Z,95806.25
2018-10-11T22:36:20.070Z,95805.31
2018-10-11T22:38:48.867Z,95805.42
2018-10-11T22:41:17.867Z,95803.35
2018-10-11T22:43:46.707Z,95810.14
2018-10-11T22:46:15.954Z,95807.50
2018-10-11T22:48:44.972Z,95807.41
2018-10-11T22:51:13.939Z,95805.16
2018-10-11T22:53:43.218Z,95799.42
2018-10-11T22:56:12.089Z,95804.58
2018-10-11T22:58:41.364Z,95805.39
2018-10-11T23:01:10.086Z,95805.89
2018-10-11T23:03:39.139Z,95793.75
2018-10-11T23:06:07.897Z,95798.70
2018-10-11T23:08:36.863Z,95794.81
2018-10-11T23:11:05.581Z,95804.14
2018-10-11T23:13:34.355Z,95803.61
2018-10-11T23:16:03.034Z,95804.52
2018-10-11T23:18:31.918Z,95802.70
2018-10-11T23:21:00.710Z,95799.63
2018-10-11T23:23:29.446Z,95790.91
2018-10-11T23:25:58.270Z,95791.22
2018-10-11T23:28:27.038Z,95793.54
2018-10-11T23:30:55.767Z,95790.91
2018-10-11T23:33:24.487Z,95781.36
2018-10-11T23:35:53.255Z,95781.36
2018-10-11T23:38:22.010Z,95777.91
2018-10-11T23:40:50.734Z,95779.95
2018-10-11T23:43:19.499Z,95779.70
2018-10-11T23:45:48.254Z,95778.48
2018-10-11T23:48:17.018Z,95782.75
2018-10-11T23:50:45.739Z,95781.72
2018-10-11T23:53:14.486Z,95782.16
2018-10-11T23:55:43.347Z,95784.22
2018-10-11T23:58:12.092Z,95784.22
